Time;durP1;ratioP1;P1;durP2;ratioP2;P2;SDS_P1;SDS_P2;PMS_P1;PMS_P2;Temp;Humidity;BMP_temperature;BMP_pressure;BME280_temperature;BME280_humidity;BME280_pressure;Samples;Min_cycle;Max_cycle;Signal;HPM_P1;HPM_P2
2023/08/07 00:01:50;;;;;;;2.38;1.48;;;;;;;20.53;53.86;92704.25;5072693;28;20701;-91
2023/08/07 00:04:15;;;;;;;2.05;1.42;;;;;;;20.54;53.66;92694.00;5086471;28;20084;-89
2023/08/07 00:06:41;;;;;;;1.50;1.38;;;;;;;20.53;53.64;92689.78;5057087;28;20048;-91
2023/08/07 00:09:07;;;;;;;1.95;1.33;;;;;;;20.52;54.02;92696.56;5057570;28;20097;-91
2023/08/07 00:11:32;;;;;;;1.48;1.23;;;;;;;20.52;53.81;92696.56;5076151;28;20044;-90
2023/08/07 00:13:58;;;;;;;1.52;1.30;;;;;;;20.55;53.69;92697.50;5074222;28;20036;-91
2023/08/07 00:16:23;;;;;;;1.98;1.45;;;;;;;20.53;53.61;92695.28;5054151;28;20045;-92
2023/08/07 00:18:48;;;;;;;1.92;1.15;;;;;;;20.53;53.76;92698.75;5087383;28;20044;-90
2023/08/07 00:21:14;;;;;;;1.52;1.13;;;;;;;20.53;53.67;92687.03;5091283;28;20040;-92
2023/08/07 00:23:39;;;;;;;2.08;1.38;;;;;;;20.52;53.70;92699.31;5058357;28;20639;-89
2023/08/07 00:26:05;;;;;;;1.90;1.48;;;;;;;20.57;53.47;92700.44;5088964;28;20416;-91
2023/08/07 00:28:30;;;;;;;1.75;1.40;;;;;;;20.54;53.67;92688.50;5074427;28;20040;-89
2023/08/07 00:30:56;;;;;;;1.70;1.10;;;;;;;20.53;53.67;92698.75;5087309;28;20043;-91
2023/08/07 00:33:21;;;;;;;1.90;1.48;;;;;;;20.51;53.81;92703.31;5094041;28;20039;-91
2023/08/07 00:35:48;;;;;;;1.95;1.30;;;;;;;20.53;53.63;92709.00;5062132;28;20118;-92
2023/08/07 00:38:13;;;;;;;1.30;1.20;;;;;;;20.52;53.68;92707.53;5068834;28;20044;-92
2023/08/07 00:40:39;;;;;;;1.75;1.23;;;;;;;20.50;53.80;92710.81;5038488;28;20045;-91
2023/08/07 00:43:04;;;;;;;1.88;1.48;;;;;;;20.53;53.51;92703.53;5053514;28;20102;-89
2023/08/07 00:45:31;;;;;;;2.08;1.38;;;;;;;20.51;53.76;92708.81;5029403;28;20040;-91
2023/08/07 00:47:57;;;;;;;1.88;1.23;;;;;;;20.51;53.53;92711.56;5055574;28;20078;-89
2023/08/07 00:50:22;;;;;;;2.17;1.83;;;;;;;20.52;53.82;92705.53;5059379;28;20449;-89
2023/08/07 00:52:48;;;;;;;1.88;1.30;;;;;;;20.52;53.36;92702.78;5065279;28;20493;-91
2023/08/07 00:55:13;;;;;;;2.63;1.70;;;;;;;20.50;53.45;92697.09;5046040;28;20044;-91
2023/08/07 00:57:38;;;;;;;1.77;1.35;;;;;;;20.51;53.63;92708.81;5042434;28;20044;-90
2023/08/07 01:00:05;;;;;;;2.72;1.65;;;;;;;20.51;53.56;92698.56;5035129;28;20048;-90
2023/08/07 01:02:31;;;;;;;1.65;1.38;;;;;;;20.48;53.46;92707.88;5053278;28;20052;-90
2023/08/07 01:04:56;;;;;;;1.63;1.25;;;;;;;20.50;53.58;92705.34;5056819;28;20051;-90
2023/08/07 01:07:22;;;;;;;2.15;1.63;;;;;;;20.50;53.64;92701.84;5062722;28;20213;-91
2023/08/07 01:09:47;;;;;;;2.55;1.58;;;;;;;20.49;53.60;92692.16;5057993;28;20043;-92
2023/08/07 01:12:19;;;;;;;3.13;1.98;;;;;;;20.49;53.58;92714.13;5093187;28;20039;-90
2023/08/07 01:14:52;;;;;;;2.08;1.30;;;;;;;20.49;53.57;92701.13;5057949;28;20061;-90
2023/08/07 01:17:19;;;;;;;1.67;1.40;;;;;;;20.50;53.41;92699.09;5073874;28;20082;-89
2023/08/07 01:19:45;;;;;;;1.95;1.40;;;;;;;20.48;53.61;92690.69;5057376;28;20378;-90
2023/08/07 01:22:17;;;;;;;1.85;1.60;;;;;;;20.52;53.00;92691.81;5059182;28;20047;-91
2023/08/07 01:24:47;;;;;;;2.38;1.30;;;;;;;20.46;53.47;92685.72;5084595;28;20067;-91
2023/08/07 01:27:18;;;;;;;2.70;1.43;;;;;;;20.49;53.45;92694.88;5093646;28;20032;-90
2023/08/07 01:29:57;;;;;;;1.38;1.20;;;;;;;20.48;53.51;92691.41;5110237;28;20048;-91
2023/08/07 01:32:28;;;;;;;1.60;1.30;;;;;;;20.46;53.53;92685.00;5076552;28;20044;-90
2023/08/07 01:34:53;;;;;;;;;;;;;;;20.49;53.50;92687.38;5094720;28;20047;-90
2023/08/07 01:37:19;;;;;;;1.65;1.30;;;;;;;20.48;53.38;92690.69;5103476;28;19916;-91
2023/08/07 01:39:45;;;;;;;2.00;1.27;;;;;;;20.47;53.45;92687.19;5093550;28;20039;-91
2023/08/07 01:42:10;;;;;;;1.38;1.17;;;;;;;20.47;53.54;92687.19;5071732;28;20036;-90
2023/08/07 01:44:36;;;;;;;1.98;1.40;;;;;;;20.45;53.40;92681.50;5085645;28;20052;-90
2023/08/07 01:47:02;;;;;;;3.45;1.38;;;;;;;20.46;53.41;92687.72;5103737;28;20039;-91
2023/08/07 01:49:27;;;;;;;3.67;1.70;;;;;;;20.46;53.53;92685.72;5080555;28;20052;-91
2023/08/07 01:51:53;;;;;;;1.27;1.17;;;;;;;20.47;53.28;92680.97;5054752;28;20024;-90
2023/08/07 01:54:18;;;;;;;1.42;1.05;;;;;;;20.48;53.21;92690.69;5088729;28;20050;-91
2023/08/07 01:56:43;;;;;;;1.40;1.30;;;;;;;20.46;53.40;92682.25;5072878;28;20036;-90
2023/08/07 01:59:09;;;;;;;1.80;1.17;;;;;;;20.48;53.32;92672.19;5089874;28;20530;-90
2023/08/07 02:01:34;;;;;;;1.55;1.30;;;;;;;20.48;53.50;92677.69;5072619;28;20051;-90
2023/08/07 02:04:00;;;;;;;2.10;1.23;;;;;;;20.48;53.36;92679.69;5072673;28;20048;-92
2023/08/07 02:06:25;;;;;;;1.40;1.30;;;;;;;20.49;53.41;92679.16;5074328;28;20130;-90
2023/08/07 02:08:50;;;;;;;1.42;1.33;;;;;;;20.49;53.59;92687.38;5094524;28;20035;-91
2023/08/07 02:11:16;;;;;;;1.52;1.40;;;;;;;20.46;53.38;92693.22;5076736;28;20044;-90
2023/08/07 02:13:41;;;;;;;1.63;1.30;;;;;;;20.47;53.27;92684.44;5061077;28;20438;-90
2023/08/07 02:16:07;;;;;;;1.65;1.15;;;;;;;20.45;53.31;92686.25;5074328;28;20486;-91
2023/08/07 02:18:32;;;;;;;2.22;1.05;;;;;;;20.47;53.11;92683.72;5080766;28;20520;-91
2023/08/07 02:20:58;;;;;;;2.13;1.17;;;;;;;20.45;53.15;92683.53;5072809;28;20078;-91
2023/08/07 02:23:24;;;;;;;2.42;1.20;;;;;;;20.45;53.53;92687.00;5081637;28;20036;-91
2023/08/07 02:25:50;;;;;;;1.50;1.17;;;;;;;20.45;53.16;92684.25;5064957;28;20040;-89
2023/08/07 02:28:15;;;;;;;2.28;1.30;;;;;;;20.46;53.23;92693.22;5069995;28;20037;-92
2023/08/07 02:30:40;;;;;;;1.73;1.27;;;;;;;20.46;53.15;92701.47;5084204;28;20057;-90
2023/08/07 02:33:07;;;;;;;1.75;1.40;;;;;;;20.45;53.03;92687.00;5071983;28;20052;-91
2023/08/07 02:35:33;;;;;;;1.58;1.40;;;;;;;20.45;52.95;92684.25;5074085;28;20044;-90
2023/08/07 02:37:58;;;;;;;1.50;1.23;;;;;;;20.42;53.35;92693.56;5064345;28;20032;-92
2023/08/07 02:40:23;;;;;;;1.75;1.40;;;;;;;20.45;53.24;92689.75;5086193;28;20049;-91
2023/08/07 02:42:49;;;;;;;2.15;1.45;;;;;;;20.44;53.09;92687.53;5079391;28;20042;-91
2023/08/07 02:45:15;;;;;;;1.52;1.30;;;;;;;20.43;53.25;92695.03;5096350;28;20036;-91
2023/08/07 02:47:41;;;;;;;1.60;1.17;;;;;;;20.43;53.12;92686.81;5076815;28;20042;-91
2023/08/07 02:50:06;;;;;;;1.15;1.00;;;;;;;20.43;53.33;92689.53;5088296;28;20052;-91
2023/08/07 02:52:32;;;;;;;1.98;1.33;;;;;;;20.42;53.05;92690.81;5087935;28;20067;-91
2023/08/07 02:54:58;;;;;;;1.35;1.25;;;;;;;20.43;52.98;92691.56;5044227;28;20040;-89
2023/08/07 02:57:24;;;;;;;1.63;1.42;;;;;;;20.42;53.08;92695.56;5082724;27;20036;-91
2023/08/07 02:59:50;;;;;;;1.77;1.20;;;;;;;20.42;53.22;92699.06;5068759;27;20035;-91
2023/08/07 03:02:15;;;;;;;1.77;1.20;;;;;;;20.40;53.00;92698.88;5085583;28;20047;-89
2023/08/07 03:04:41;;;;;;;1.98;1.30;;;;;;;20.43;53.44;92691.56;5079113;28;20050;-89
2023/08/07 03:07:07;;;;;;;0.88;0.80;;;;;;;20.42;53.08;92695.56;5062395;28;20036;-91
2023/08/07 03:09:32;;;;;;;2.05;1.20;;;;;;;20.41;53.31;92683.84;5096046;27;20051;-91
2023/08/07 03:12:03;;;;;;;1.83;1.23;;;;;;;20.42;53.10;92684.59;5060415;28;20550;-90
2023/08/07 03:14:28;;;;;;;1.92;1.15;;;;;;;20.42;53.08;92699.06;5085587;28;20061;-91
2023/08/07 03:16:54;;;;;;;2.22;1.00;;;;;;;20.41;53.07;92678.38;5078428;28;20490;-91
2023/08/07 03:19:21;;;;;;;1.40;1.20;;;;;;;20.41;52.92;92685.88;5075167;28;20524;-91
2023/08/07 03:21:46;;;;;;;1.40;1.02;;;;;;;20.40;53.13;92687.88;5096889;27;20062;-89
2023/08/07 03:24:12;;;;;;;2.05;1.13;;;;;;;20.42;52.89;92690.09;5066962;28;20044;-92
2023/08/07 03:26:37;;;;;;;1.52;1.02;;;;;;;20.39;53.12;92689.16;5074629;28;20036;-90
2023/08/07 03:29:03;;;;;;;1.55;1.15;;;;;;;20.40;52.90;92682.38;5065607;28;20116;-90
2023/08/07 03:31:28;;;;;;;1.10;1.00;;;;;;;20.40;52.95;92690.63;5081931;27;20039;-91
2023/08/07 03:33:53;;;;;;;1.98;1.20;;;;;;;20.40;53.14;92698.88;5064721;28;20555;-89
2023/08/07 03:36:19;;;;;;;1.80;1.13;;;;;;;20.39;52.96;92708.38;5080099;27;20028;-91
2023/08/07 03:38:44;;;;;;;2.22;1.50;;;;;;;20.44;52.90;92698.53;5075743;27;20057;-90
2023/08/07 03:41:10;;;;;;;2.45;1.67;;;;;;;20.38;53.22;92703.41;5082515;27;20051;-89
2023/08/07 03:43:35;;;;;;;2.00;1.60;;;;;;;20.40;52.80;92714.59;5062492;28;20054;-91
2023/08/07 03:46:01;;;;;;;2.95;2.25;;;;;;;20.41;53.09;92705.81;5093050;27;20515;-92
2023/08/07 03:48:26;;;;;;;5.00;3.25;;;;;;;20.42;53.21;92709.31;5094162;28;20040;-91
2023/08/07 03:50:53;;;;;;;15.05;8.40;;;;;;;20.45;52.86;92719.94;5066710;28;20028;-94
2023/08/07 03:53:18;;;;;;;8.30;5.35;;;;;;;20.43;52.61;92716.25;5058205;28;20040;-90
2023/08/07 03:55:50;;;;;;;8.10;6.82;;;;;;;20.40;52.49;92717.34;5057478;28;20094;-91
2023/08/07 03:58:22;;;;;;;13.27;9.02;;;;;;;20.42;52.79;92720.28;5008753;28;20044;-92
2023/08/07 04:00:50;;;;;;;13.65;9.40;;;;;;;20.41;52.87;92714.06;5054864;28;20450;-92
2023/08/07 04:03:18;;;;;;;13.18;8.90;;;;;;;20.40;52.83;92714.59;5044343;28;20050;-93
2023/08/07 04:05:44;;;;;;;14.63;8.52;;;;;;;20.41;52.86;92721.56;5045578;28;20628;-91
2023/08/07 04:08:10;;;;;;;23.92;14.55;;;;;;;20.40;52.93;92733.81;5025547;28;20064;-91
2023/08/07 04:10:35;;;;;;;18.58;13.38;;;;;;;20.41;52.87;92725.03;5044901;28;20052;-92
2023/08/07 04:13:01;;;;;;;23.85;15.32;;;;;;;20.40;52.92;92734.53;5037164;28;20067;-91
2023/08/07 04:15:27;;;;;;;20.30;13.95;;;;;;;20.42;52.81;92731.25;5078906;28;20040;-90
2023/08/07 04:17:53;;;;;;;14.45;7.72;;;;;;;20.42;51.08;92734.00;5038900;28;20041;-91
2023/08/07 04:20:20;;;;;;;7.60;4.70;;;;;;;20.37;51.04;92734.88;5073346;28;20052;-90
2023/08/07 04:22:46;;;;;;;10.07;4.15;;;;;;;20.22;50.36;92748.50;5031195;28;20649;-88
2023/08/07 04:25:12;;;;;;;10.05;4.70;;;;;;;20.15;50.40;92725.94;5056102;28;20044;-89
2023/08/07 04:27:38;;;;;;;12.05;5.53;;;;;;;20.19;50.18;92729.09;5046414;28;20426;-93
2023/08/07 04:30:07;;;;;;;11.45;4.82;;;;;;;20.08;49.93;92726.66;5040166;28;20067;-94
2023/08/07 04:32:32;;;;;;;24.98;7.30;;;;;;;20.07;49.71;92729.94;5049766;28;20529;-92
2023/08/07 04:34:58;;;;;;;36.75;12.18;;;;;;;20.02;49.50;92739.75;5049791;28;20041;-89
2023/08/07 04:37:24;;;;;;;43.83;17.88;;;;;;;20.01;49.44;92734.81;5049202;28;20036;-90
2023/08/07 04:39:54;;;;;;;36.92;17.05;;;;;;;19.98;49.59;92733.88;5050496;28;20047;-90
2023/08/07 04:42:19;;;;;;;35.15;13.95;;;;;;;19.95;49.68;92737.69;5073040;28;20037;-91
2023/08/07 04:44:45;;;;;;;34.58;14.88;;;;;;;19.92;49.82;92736.00;5083968;28;20051;-92
2023/08/07 04:47:10;;;;;;;39.33;16.08;;;;;;;19.88;49.58;92738.38;5065409;28;20371;-87
2023/08/07 04:49:35;;;;;;;34.88;15.13;;;;;;;19.92;49.69;92744.25;5082993;28;20075;-89
2023/08/07 04:52:01;;;;;;;33.97;12.93;;;;;;;19.92;49.31;92749.03;5062822;28;20040;-91
2023/08/07 04:54:26;;;;;;;44.05;15.23;;;;;;;19.91;49.31;92748.28;5037044;28;20078;-89
2023/08/07 04:56:52;;;;;;;40.55;17.60;;;;;;;19.95;49.45;92740.44;5048736;28;20550;-91
2023/08/07 04:59:17;;;;;;;52.40;27.15;;;;;;;19.89;49.65;92748.09;5032914;28;20056;-92
2023/08/07 05:01:43;;;;;;;38.95;20.98;;;;;;;19.84;49.61;92755.16;5009609;28;20037;-89
2023/08/07 05:04:08;;;;;;;40.55;17.30;;;;;;;19.83;49.37;92750.97;5034126;28;20045;-90
2023/08/07 05:06:34;;;;;;;36.10;17.10;;;;;;;19.84;49.34;92749.69;5028238;28;20110;-90
2023/08/07 05:09:08;;;;;;;34.20;14.50;;;;;;;19.80;49.44;92754.78;5051504;28;20045;-93
2023/08/07 05:11:33;;;;;;;18.75;10.65;;;;;;;19.78;49.28;92748.34;5055153;28;20055;-92
2023/08/07 05:13:59;;;;;;;24.20;11.35;;;;;;;19.80;49.08;92754.03;5038620;28;20052;-93
2023/08/07 05:16:24;;;;;;;21.38;10.30;;;;;;;19.76;49.16;92761.84;5038871;28;20037;-91
2023/08/07 05:18:50;;;;;;;42.10;10.75;;;;;;;19.77;49.40;92766.06;5026832;28;20441;-92
2023/08/07 05:21:15;;;;;;;32.28;9.27;;;;;;;19.77;49.28;92777.03;5058873;28;20260;-92
2023/08/07 05:23:41;;;;;;;40.20;8.88;;;;;;;19.73;49.59;92762.91;5060479;28;20070;-90
2023/08/07 05:26:06;;;;;;;23.27;7.18;;;;;;;19.76;48.77;92778.31;5073280;28;20052;-92
2023/08/07 05:28:32;;;;;;;30.98;11.77;;;;;;;19.70;49.31;92785.94;5046238;28;20057;-92
2023/08/07 05:30:57;;;;;;;21.10;8.30;;;;;;;19.74;49.11;92778.09;5050595;28;20055;-93
2023/08/07 05:33:23;;;;;;;23.90;8.80;;;;;;;19.75;48.94;92782.31;5069352;28;20040;-93
2023/08/07 05:35:48;;;;;;;41.00;13.57;;;;;;;19.80;49.37;92784.19;5042882;28;20048;-91
2023/08/07 05:38:14;;;;;;;45.95;15.07;;;;;;;19.84;49.51;92784.59;5049201;28;20055;-93
2023/08/07 05:40:40;;;;;;;90.70;29.40;;;;;;;19.87;49.48;92774.56;5057482;28;20048;-92
2023/08/07 05:43:07;;;;;;;87.68;32.22;;;;;;;19.92;49.64;92785.38;5054533;28;20036;-91
2023/08/07 05:45:33;;;;;;;93.68;30.85;;;;;;;20.00;49.38;92786.19;5037048;28;20037;-95
2023/08/07 05:47:58;;;;;;;76.13;30.38;;;;;;;20.04;49.34;92794.09;5046645;28;20089;-93
2023/08/07 05:50:24;;;;;;;98.85;37.83;;;;;;;19.99;49.80;92797.72;5052435;28;20036;-93
2023/08/07 05:52:50;;;;;;;124.82;47.13;;;;;;;20.03;49.79;92795.38;5040486;28;20098;-91
2023/08/07 05:55:15;;;;;;;98.72;38.90;;;;;;;20.05;49.63;92793.56;5043253;28;20055;-91
2023/08/07 05:57:40;;;;;;;87.68;39.70;;;;;;;20.07;49.85;92801.25;5021220;28;20525;-89
2023/08/07 06:00:07;;;;;;;107.60;39.70;;;;;;;20.12;50.09;92803.88;5028991;28;20445;-93
2023/08/07 06:02:33;;;;;;;157.32;60.55;;;;;;;20.13;50.21;92805.34;5010958;28;20056;-91
2023/08/07 06:04:58;;;;;;;121.60;52.40;;;;;;;20.23;50.39;92810.34;5050275;28;20391;-89
2023/08/07 06:07:24;;;;;;;128.45;52.67;;;;;;;20.21;50.22;92799.91;5068804;28;20515;-89
2023/08/07 06:09:52;;;;;;;131.82;60.30;;;;;;;20.27;50.45;92824.47;5053701;28;20052;-90
2023/08/07 06:12:17;;;;;;;115.75;45.47;;;;;;;20.36;50.60;92816.47;5025318;28;20037;-90
2023/08/07 06:14:43;;;;;;;148.20;61.10;;;;;;;20.37;50.58;92825.47;5050149;28;20342;-88
2023/08/07 06:17:09;;;;;;;122.10;52.58;;;;;;;20.36;50.28;92824.72;5074549;28;20048;-88
2023/08/07 06:19:35;;;;;;;108.90;47.78;;;;;;;20.34;50.20;92832.78;5062909;28;20075;-89
2023/08/07 06:22:01;;;;;;;122.07;54.25;;;;;;;20.34;50.46;92832.78;5038529;28;20048;-88
2023/08/07 06:24:26;;;;;;;102.57;47.28;;;;;;;20.34;50.38;92835.53;5069092;28;20474;-90
2023/08/07 06:26:52;;;;;;;103.93;46.80;;;;;;;20.31;50.12;92847.56;5091325;28;20583;-91
2023/08/07 06:29:17;;;;;;;96.85;46.72;;;;;;;20.30;50.05;92843.34;5057859;28;20028;-88
2023/08/07 06:31:43;;;;;;;118.80;46.25;;;;;;;20.29;50.37;92839.13;5076155;28;20052;-90
2023/08/07 06:34:08;;;;;;;103.40;46.83;;;;;;;20.28;50.55;92859.63;5046087;28;20028;-91
2023/08/07 06:36:34;;;;;;;111.65;46.03;;;;;;;20.24;50.40;92842.00;5085815;28;20506;-91
2023/08/07 06:38:59;;;;;;;115.22;46.97;;;;;;;20.24;50.42;92853.72;5066685;28;20035;-91
2023/08/07 06:41:26;;;;;;;119.93;52.80;;;;;;;20.27;50.38;92854.66;5079681;28;20562;-92
2023/08/07 06:43:51;;;;;;;132.98;53.97;;;;;;;20.28;50.13;92856.88;5063903;28;20040;-90
2023/08/07 06:46:17;;;;;;;129.45;54.65;;;;;;;20.26;50.25;92872.41;5099037;28;20046;-90
2023/08/07 06:48:42;;;;;;;132.82;54.88;;;;;;;20.28;50.19;92870.59;5083897;28;20041;-88
2023/08/07 06:51:08;;;;;;;125.70;51.40;;;;;;;20.25;50.25;92871.66;5061806;28;20041;-89
2023/08/07 06:53:33;;;;;;;110.43;46.55;;;;;;;20.25;50.39;92860.69;5074679;28;20032;-88
2023/08/07 06:55:58;;;;;;;103.45;44.95;;;;;;;20.26;50.07;92855.94;5038557;28;20044;-90
2023/08/07 06:58:24;;;;;;;101.10;44.05;;;;;;;20.28;50.48;92861.63;5032252;28;20075;-91
2023/08/07 07:00:49;;;;;;;97.97;42.85;;;;;;;20.27;50.41;92860.16;5045759;28;20045;-89
2023/08/07 07:03:16;;;;;;;82.68;39.60;;;;;;;20.32;50.15;92867.53;5069948;28;20494;-89
2023/08/07 07:05:42;;;;;;;76.75;34.42;;;;;;;20.31;50.36;92877.75;5061381;28;20040;-89
2023/08/07 07:08:08;;;;;;;85.00;38.42;;;;;;;20.30;50.46;92879.03;5050307;28;20065;-88
2023/08/07 07:10:33;;;;;;;75.55;36.33;;;;;;;20.28;50.42;92878.84;5083671;28;20052;-90
2023/08/07 07:12:59;;;;;;;72.68;36.35;;;;;;;20.32;50.45;92878.50;5047744;28;20056;-91
2023/08/07 07:15:24;;;;;;;98.22;41.35;;;;;;;20.30;50.77;92873.53;5053203;28;20036;-90
2023/08/07 07:17:50;;;;;;;98.15;44.65;;;;;;;20.30;50.43;92892.03;5074590;28;20035;-90
2023/08/07 07:20:15;;;;;;;111.68;50.25;;;;;;;20.34;50.80;92890.41;5053907;28;20051;-89
2023/08/07 07:22:41;;;;;;;121.50;49.97;;;;;;;20.31;50.67;92885.25;5046790;28;20036;-90
2023/08/07 07:25:07;;;;;;;137.75;60.42;;;;;;;20.32;50.62;92890.22;5048694;28;20053;-89
2023/08/07 07:27:32;;;;;;;112.10;48.45;;;;;;;20.32;50.82;92892.97;5055652;28;20040;-90
2023/08/07 07:29:57;;;;;;;101.32;47.83;;;;;;;20.30;50.67;92886.53;5042771;28;20040;-90
2023/08/07 07:32:24;;;;;;;105.00;45.45;;;;;;;20.29;50.80;92907.75;5075837;28;20047;-91
2023/08/07 07:34:49;;;;;;;98.45;44.55;;;;;;;20.32;50.74;92906.69;5075471;28;20039;-91
2023/08/07 07:37:16;;;;;;;98.22;46.45;;;;;;;20.33;50.67;92899.94;5060966;28;20032;-91
2023/08/07 07:39:43;;;;;;;109.40;46.97;;;;;;;20.32;50.62;92920.41;5045303;28;20069;-90
2023/08/07 07:42:08;;;;;;;95.68;44.97;;;;;;;20.29;50.55;92926.97;5053064;28;20040;-90
2023/08/07 07:44:36;;;;;;;94.78;42.00;;;;;;;20.29;50.76;92939.97;5072948;28;20130;-89
2023/08/07 07:47:01;;;;;;;79.43;39.42;;;;;;;20.33;50.66;92929.38;5052968;28;20049;-90
2023/08/07 07:49:27;;;;;;;89.35;40.38;;;;;;;20.33;50.92;92940.38;5035321;28;20036;-92
2023/08/07 07:51:52;;;;;;;108.72;50.05;;;;;;;20.32;50.62;92936.88;5066702;28;20051;-89
2023/08/07 07:54:17;;;;;;;129.05;60.70;;;;;;;20.33;50.69;92954.09;5083571;28;20044;-90
2023/08/07 07:56:44;;;;;;;86.18;46.03;;;;;;;20.33;50.74;92957.56;5054723;28;20041;-91
2023/08/07 07:59:09;;;;;;;87.53;46.65;;;;;;;20.35;50.64;92962.53;5036791;28;20028;-91
2023/08/07 08:01:35;;;;;;;95.85;48.65;;;;;;;20.34;50.92;92953.56;5063851;28;20099;-90
2023/08/07 08:04:01;;;;;;;117.68;53.05;;;;;;;20.34;50.66;92972.03;5049397;28;20045;-88
2023/08/07 08:06:26;;;;;;;192.50;86.15;;;;;;;20.37;50.68;92962.75;5033172;28;20039;-88
2023/08/07 08:08:52;;;;;;;184.45;83.45;;;;;;;20.37;50.82;92968.97;5052857;28;20056;-89
2023/08/07 08:11:18;;;;;;;168.32;80.10;;;;;;;20.34;50.85;92978.25;5038781;28;20040;-89
2023/08/07 08:13:43;;;;;;;208.70;94.93;;;;;;;20.34;50.88;92980.28;5052103;28;20040;-89
2023/08/07 08:16:10;;;;;;;188.70;87.32;;;;;;;20.33;50.90;92979.53;5049914;28;20390;-89
2023/08/07 08:18:35;;;;;;;136.85;66.05;;;;;;;20.38;50.50;92992.41;5058594;28;20361;-89
2023/08/07 08:21:01;;;;;;;67.60;31.73;;;;;;;20.26;49.49;92991.16;5044890;28;20033;-91
2023/08/07 08:23:26;;;;;;;79.85;35.67;;;;;;;20.22;49.75;92993.50;5036961;28;20635;-88
2023/08/07 08:25:51;;;;;;;94.78;36.83;;;;;;;20.27;49.95;92995.38;5049012;28;20040;-89
2023/08/07 08:28:17;;;;;;;81.32;35.25;;;;;;;20.30;49.78;92999.06;5092910;28;20456;-90
2023/08/07 08:30:42;;;;;;;64.85;33.38;;;;;;;20.28;49.84;92994.13;5061946;28;20052;-90
2023/08/07 08:33:11;;;;;;;46.05;24.75;;;;;;;20.25;49.60;93005.41;5027962;28;20037;-89
2023/08/07 08:35:36;;;;;;;47.17;21.60;;;;;;;20.12;49.30;93008.94;5044899;28;20050;-89
2023/08/07 08:38:03;;;;;;;39.38;19.90;;;;;;;20.06;49.01;93006.31;5045557;28;20116;-89
2023/08/07 08:40:36;;;;;;;32.63;16.65;;;;;;;20.05;48.91;93017.81;5041588;28;20044;-89
2023/08/07 08:43:05;;;;;;;34.13;14.57;;;;;;;19.97;48.86;93025.94;5041997;28;20052;-88
2023/08/07 08:45:32;;;;;;;26.70;12.40;;;;;;;19.91;48.61;93021.88;5079094;28;20028;-89
2023/08/07 08:48:01;;;;;;;34.35;13.20;;;;;;;19.89;48.49;93043.59;5064830;28;20047;-89
2023/08/07 08:50:27;;;;;;;24.92;10.25;;;;;;;19.83;48.85;93030.00;5055769;28;20503;-90
2023/08/07 08:52:53;;;;;;;22.95;10.32;;;;;;;19.84;48.78;93028.72;5042531;28;20052;-90
2023/08/07 08:55:19;;;;;;;21.27;8.40;;;;;;;19.77;48.70;93034.84;5061678;28;20075;-89
2023/08/07 08:57:46;;;;;;;29.25;10.65;;;;;;;19.84;48.84;93048.66;5077257;28;20472;-91
2023/08/07 09:00:21;;;;;;;32.13;10.23;;;;;;;19.76;48.86;93038.84;5055321;28;20545;-90
2023/08/07 09:02:47;;;;;;;37.13;22.98;;;;;;;19.84;48.77;93053.41;5078814;28;20818;-89
2023/08/07 09:05:14;;;;;;;35.45;23.85;;;;;;;19.81;48.84;93048.97;5063007;28;20588;-89
2023/08/07 09:07:39;;;;;;;35.28;25.88;;;;;;;19.74;48.85;93046.88;5057136;28;20037;-89
2023/08/07 09:10:06;;;;;;;28.98;15.65;;;;;;;19.78;48.83;93042.53;5040387;28;20667;-88
2023/08/07 09:12:33;;;;;;;27.20;14.90;;;;;;;19.76;49.04;93050.56;5034463;28;20506;-88
2023/08/07 09:14:58;;;;;;;26.52;14.88;;;;;;;19.81;49.31;93059.94;5073947;28;20609;-91
2023/08/07 09:17:26;;;;;;;30.38;14.45;;;;;;;19.81;49.83;93066.19;5056694;28;20048;-91
2023/08/07 09:19:52;;;;;;;37.17;14.88;;;;;;;19.89;49.41;93069.03;5074778;28;20033;-89
2023/08/07 09:22:19;;;;;;;32.22;14.90;;;;;;;19.88;49.70;93058.59;5062885;28;20041;-91
2023/08/07 09:24:44;;;;;;;30.63;15.18;;;;;;;19.93;49.60;93071.44;5059461;28;20049;-89
2023/08/07 09:27:10;;;;;;;28.92;15.27;;;;;;;19.96;49.88;93073.13;5073134;28;20121;-88
2023/08/07 09:29:35;;;;;;;29.88;14.63;;;;;;;19.96;49.67;93073.84;5072319;28;20532;-89
2023/08/07 09:32:09;;;;;;;26.88;14.60;;;;;;;20.01;49.87;93083.25;5062224;28;20785;-88
2023/08/07 09:34:34;;;;;;;29.10;15.15;;;;;;;20.01;49.87;93073.00;5041781;28;20037;-92
2023/08/07 09:37:00;;;;;;;34.60;17.45;;;;;;;20.02;50.22;93088.22;5039329;28;20548;-90
2023/08/07 09:39:25;;;;;;;38.97;18.45;;;;;;;20.03;50.51;93088.94;5036922;28;20048;-90
2023/08/07 09:41:51;;;;;;;48.38;20.17;;;;;;;20.08;50.33;93090.84;5053476;28;20048;-91
2023/08/07 09:44:17;;;;;;;45.03;19.98;;;;;;;20.09;50.31;93090.31;5070580;28;20044;-91
2023/08/07 09:46:43;;;;;;;56.78;19.20;;;;;;;20.08;50.47;93094.34;5062607;28;20045;-90
2023/08/07 09:49:08;;;;;;;55.45;22.25;;;;;;;20.06;50.64;93096.88;5038933;28;20048;-90
2023/08/07 09:51:46;;;;;;;74.57;24.75;;;;;;;20.10;50.96;93091.06;5045418;28;20506;-91
2023/08/07 09:54:12;;;;;;;52.30;16.23;;;;;;;20.07;50.16;93103.09;5045315;28;20112;-90
2023/08/07 09:56:43;;;;;;;30.40;12.35;;;;;;;20.01;49.65;93105.19;5027177;28;20048;-91
2023/08/07 09:59:09;;;;;;;60.28;14.55;;;;;;;20.02;50.47;93107.41;5013663;28;20045;-91
2023/08/07 10:01:39;;;;;;;52.00;15.57;;;;;;;20.04;50.24;93104.16;5071300;28;20323;-90
2023/08/07 10:04:05;;;;;;;50.97;15.40;;;;;;;20.04;50.45;93107.63;5043088;28;20060;-91
2023/08/07 10:06:30;;;;;;;50.05;16.95;;;;;;;20.04;50.64;93099.41;5057322;28;20067;-92
2023/08/07 10:08:56;;;;;;;67.22;17.67;;;;;;;20.09;50.41;93108.78;5022764;28;20202;-91
2023/08/07 10:11:21;;;;;;;49.28;17.05;;;;;;;20.06;50.44;93112.59;5016034;28;20037;-92
2023/08/07 10:13:47;;;;;;;45.35;16.38;;;;;;;20.10;50.44;93118.50;5048238;28;20044;-91
2023/08/07 10:16:12;;;;;;;46.95;17.25;;;;;;;20.13;50.48;93112.69;5044625;28;20115;-92
2023/08/07 10:18:38;;;;;;;49.50;17.20;;;;;;;20.13;50.48;93123.69;5049458;28;20131;-92
2023/08/07 10:21:04;;;;;;;41.47;16.50;;;;;;;20.14;50.73;93119.63;5030946;28;20041;-91
2023/08/07 10:23:30;;;;;;;41.97;17.77;;;;;;;20.17;50.97;93128.81;5032090;28;20060;-91
2023/08/07 10:25:56;;;;;;;36.85;15.70;;;;;;;20.14;50.92;93127.88;5038755;28;20040;-90
2023/08/07 10:28:21;;;;;;;41.85;16.98;;;;;;;20.14;51.24;93127.88;5046589;28;20367;-91
2023/08/07 10:30:48;;;;;;;30.27;14.68;;;;;;;20.13;51.05;93129.16;5061220;28;20036;-91
2023/08/07 10:33:14;;;;;;;33.05;14.88;;;;;;;20.15;51.16;93137.59;5035803;28;20041;-90
2023/08/07 10:35:47;;;;;;;29.05;14.85;;;;;;;20.14;51.36;93136.09;5071202;28;20033;-92
2023/08/07 10:38:14;;;;;;;38.90;14.18;;;;;;;20.16;51.15;93135.59;5083803;28;20045;-89
2023/08/07 10:41:07;;;;;;;26.65;13.07;;;;;;;20.18;51.15;93131.03;5049908;28;20043;-92
2023/08/07 10:43:37;;;;;;;38.05;13.45;;;;;;;20.22;51.11;93144.44;5071897;28;20159;-92
2023/08/07 10:46:05;;;;;;;24.90;12.30;;;;;;;20.22;51.00;93132.72;5049534;28;20111;-91
2023/08/07 10:48:43;;;;;;;29.13;13.93;;;;;;;20.20;51.50;93146.97;5071969;28;20451;-90
2023/08/07 10:51:08;;;;;;;25.90;12.35;;;;;;;20.22;51.43;93138.22;5070537;28;20052;-91
2023/08/07 10:53:35;;;;;;;25.15;12.68;;;;;;;20.20;51.23;93142.22;5055456;28;20044;-95
2023/08/07 10:56:03;;;;;;;26.27;14.80;;;;;;;20.18;51.26;93141.28;5055763;28;20040;-91
2023/08/07 10:58:36;;;;;;;28.30;15.63;;;;;;;20.19;51.44;93143.50;5058516;28;20032;-90
2023/08/07 11:01:19;;;;;;;28.50;17.42;;;;;;;20.19;51.21;93140.75;5060224;28;20036;-86
2023/08/07 11:03:44;;;;;;;77.40;40.97;;;;;;;20.20;51.13;93134.00;5041771;28;20040;-88
2023/08/07 11:06:11;;;;;;;49.58;25.92;;;;;;;20.18;51.47;93142.03;5052919;28;20439;-87
2023/08/07 11:08:37;;;;;;;66.43;36.63;;;;;;;20.20;51.39;93138.75;5058695;28;20051;-87
2023/08/07 11:11:05;;;;;;;63.42;35.50;;;;;;;20.20;51.46;93134.00;5092449;28;20036;-87
2023/08/07 11:13:31;;;;;;;55.95;31.38;;;;;;;20.22;51.30;93133.47;5077138;28;20505;-87
2023/08/07 11:15:57;;;;;;;69.28;33.15;;;;;;;20.25;51.57;93137.16;5055407;28;20044;-88
2023/08/07 11:18:22;;;;;;;24.50;14.13;;;;;;;20.16;50.50;93146.56;5070608;28;20040;-88